CheckWX is a tool to help pilots better visualize weather data.  It is not intended as a substitute for an official pre-flight weather briefing.

07:27:39 UTC

RCTP METAR
Taiwan Taoyuan International Airport
Taipei, Taiwan
Current

28 mins ago

RCTP 050700Z 25018KT 9999 FEW020 34/26 Q1006 NOSIG RMK A2971
Observed
Jul-5 @ 07:00 UTC
Wind
  • 250° at 18 KTS
Visibility
10,000+ meters
Flight Rules
VFR
Cloud Levels
  • Few at 2,000' AGL
Temperature
34°C / 93°F
Dewpoint
26°C / 79°F
Humidity
63%
Altimeter
29.7" Hg
Pressure
1005.92 hPa
Previous

58 mins ago

RCTP 050630Z 24022KT 9999 FEW020 34/26 Q1006 NOSIG RMK A2971
Observed
Jul-5 @ 06:30 UTC
Wind
  • 240° at 22 KTS
Visibility
10,000+ meters
Flight Rules
VFR
Cloud Levels
  • Few at 2,000' AGL
Temperature
34°C / 93°F
Dewpoint
26°C / 79°F
Humidity
63%
Altimeter
29.7" Hg
Pressure
1005.92 hPa
Previous

1 hour ago

RCTP 050600Z 25018KT 9999 FEW020 SCT250 35/25 Q1006 NOSIG RMK A2972
Observed
Jul-5 @ 06:00 UTC
Wind
  • 250° at 18 KTS
Visibility
10,000+ meters
Flight Rules
VFR
Cloud Levels
  • Few at 2,000' AGL
  • Scattered at 25,000' AGL
Temperature
35°C / 95°F
Dewpoint
25°C / 77°F
Humidity
56%
Altimeter
29.7" Hg
Pressure
1005.92 hPa